Time;durP1;ratioP1;P1;durP2;ratioP2;P2;SDS_P1;SDS_P2;PMS_P1;PMS_P2;Temp;Humidity;BMP_temperature;BMP_pressure;BME280_temperature;BME280_humidity;BME280_pressure;Samples;Min_cycle;Max_cycle;Signal;HPM_P1;HPM_P2
2022/06/13 00:01:19;;;;;;;13.07;4.53;;;;;;;12.23;93.79;101616.75;4994991;28;20521;-48
2022/06/13 00:03:46;;;;;;;14.68;4.25;;;;;;;12.07;93.87;101624.41;4994011;28;20178;-48
2022/06/13 00:06:11;;;;;;;17.77;5.35;;;;;;;11.99;93.63;101627.34;4994707;28;20170;-46
2022/06/13 00:08:37;;;;;;;20.75;4.72;;;;;;;11.94;94.10;101627.50;4994832;28;20173;-50
2022/06/13 00:11:07;;;;;;;17.77;5.00;;;;;;;11.72;94.73;101629.94;4994548;28;20232;-47
2022/06/13 00:13:32;;;;;;;30.15;5.15;;;;;;;11.87;95.07;101622.31;4994336;28;20877;-49
2022/06/13 00:15:57;;;;;;;14.95;4.68;;;;;;;11.95;94.17;101636.41;4994349;28;20255;-49
2022/06/13 00:18:24;;;;;;;16.38;4.93;;;;;;;11.89;94.02;101632.09;4994334;28;20178;-46
2022/06/13 00:20:50;;;;;;;20.55;5.15;;;;;;;11.76;94.68;101628.00;4976833;28;20180;-49
2022/06/13 00:23:15;;;;;;;17.08;4.45;;;;;;;11.74;94.58;101628.06;4994171;28;20170;-50
2022/06/13 00:25:41;;;;;;;15.95;5.13;;;;;;;11.68;95.00;101624.69;4994306;28;20193;-52
2022/06/13 00:28:07;;;;;;;17.00;4.88;;;;;;;11.75;94.63;101620.91;4976348;28;20180;-51
2022/06/13 00:30:32;;;;;;;13.30;4.70;;;;;;;11.75;94.93;101619.09;4994000;28;20181;-52
2022/06/13 00:32:58;;;;;;;16.20;4.38;;;;;;;11.72;94.60;101618.31;4993285;28;20189;-52
2022/06/13 00:35:23;;;;;;;21.85;5.68;;;;;;;11.51;94.78;101611.78;4993611;28;20680;-52
2022/06/13 00:37:48;;;;;;;18.08;5.38;;;;;;;11.38;95.82;101626.47;4993966;28;20185;-51
2022/06/13 00:40:14;;;;;;;17.27;5.28;;;;;;;11.41;96.25;101626.38;4976208;28;20166;-52
2022/06/13 00:42:40;;;;;;;16.77;5.38;;;;;;;11.34;96.86;101620.31;4993870;28;20181;-50
2022/06/13 00:45:09;;;;;;;15.90;5.22;;;;;;;11.39;96.49;101615.72;4992994;28;20843;-48
2022/06/13 00:47:37;;;;;;;16.77;4.78;;;;;;;11.43;96.68;101620.03;4993428;28;20173;-49
2022/06/13 00:50:05;;;;;;;19.42;5.30;;;;;;;11.34;96.86;101607.75;4993811;28;20181;-49
2022/06/13 00:52:39;;;;;;;17.95;5.18;;;;;;;11.22;97.11;101616.19;4993092;28;20248;-49
2022/06/13 00:55:08;;;;;;;16.02;4.97;;;;;;;11.28;97.08;101604.38;4992812;28;20197;-49
2022/06/13 00:57:33;;;;;;;16.52;5.05;;;;;;;11.24;97.14;101610.75;4993255;28;20240;-50
2022/06/13 01:00:04;;;;;;;16.05;5.30;;;;;;;11.36;97.47;101601.50;4992965;28;20259;-51
2022/06/13 01:02:30;;;;;;;23.05;5.40;;;;;;;11.20;97.43;101609.09;4992919;28;20574;-52
2022/06/13 01:04:58;;;;;;;21.75;5.32;;;;;;;11.09;97.87;101604.03;4988815;28;20215;-52
2022/06/13 01:07:24;;;;;;;14.85;4.78;;;;;;;11.25;98.30;101591.06;4992205;28;20535;-50
2022/06/13 01:12:36;;;;;;;14.43;4.50;;;;;;;11.30;98.04;101602.53;4988529;28;20243;-51
2022/06/13 01:15:07;;;;;;;20.05;5.18;;;;;;;11.09;97.83;101596.00;4992008;28;20216;-52
2022/06/13 01:17:42;;;;;;;18.10;5.00;;;;;;;11.19;98.38;101602.84;4992658;28;20214;-51
2022/06/13 01:20:24;;;;;;;18.88;4.93;;;;;;;11.20;98.16;101607.28;4992529;28;20180;-51
2022/06/13 01:22:53;;;;;;;14.38;4.85;;;;;;;11.28;98.17;101601.69;4993186;28;20216;-52
2022/06/13 01:25:49;;;;;;;15.25;4.78;;;;;;;11.22;97.42;101594.72;4992651;28;20680;-52
2022/06/13 01:29:08;;;;;;;13.45;4.88;;;;;;;11.30;97.74;101594.50;4992736;28;20287;-51
2022/06/13 01:31:48;;;;;;;16.00;5.20;;;;;;;11.10;98.01;101603.97;4932990;28;20209;-52
2022/06/13 01:34:22;;;;;;;14.35;4.75;;;;;;;11.27;98.37;101602.63;4992050;28;20243;-51
2022/06/13 01:37:03;;;;;;;17.65;5.00;;;;;;;11.32;98.06;101595.31;4992967;28;20184;-51
2022/06/13 01:39:59;;;;;;;19.05;4.50;;;;;;;11.13;98.13;101595.00;4992529;28;20189;-52
2022/06/13 01:42:50;;;;;;;16.83;4.68;;;;;;;11.17;98.41;101593.94;4975366;28;20174;-51
2022/06/13 01:45:47;;;;;;;20.08;5.38;;;;;;;11.01;98.64;101593.50;4991835;28;20263;-51
2022/06/13 01:48:35;;;;;;;16.63;5.20;;;;;;;11.06;99.07;101585.34;4992539;28;20173;-51
2022/06/13 01:51:10;;;;;;;17.10;5.65;;;;;;;11.09;98.84;101579.91;4992329;28;20664;-52
2022/06/13 01:54:18;;;;;;;19.83;6.22;;;;;;;11.07;99.18;101584.44;4992250;28;20243;-51
2022/06/13 01:56:58;;;;;;;17.83;5.50;;;;;;;11.19;98.89;101567.97;4963315;28;20240;-53
2022/06/13 01:59:50;;;;;;;20.13;5.47;;;;;;;11.23;98.53;101558.03;4974698;28;20177;-50
2022/06/13 02:02:34;;;;;;;16.67;5.00;;;;;;;11.08;98.17;101565.59;4992148;28;20265;-51
2022/06/13 02:05:09;;;;;;;16.77;5.03;;;;;;;11.26;98.34;101557.94;4991836;28;20208;-52
2022/06/13 02:07:42;;;;;;;18.55;5.00;;;;;;;11.20;98.00;101567.06;4991797;28;20206;-52
2022/06/13 02:10:23;;;;;;;15.65;5.03;;;;;;;11.24;97.98;101557.09;4992287;28;20216;-52
2022/06/13 02:12:54;;;;;;;12.98;5.15;;;;;;;11.36;97.79;101550.50;4992019;28;20272;-52
2022/06/13 02:15:26;;;;;;;13.07;4.10;;;;;;;11.26;97.81;101553.47;4991552;28;20629;-51
2022/06/13 02:18:02;;;;;;;18.45;5.47;;;;;;;11.19;97.94;101564.41;4991707;28;20232;-52
2022/06/13 02:20:36;;;;;;;17.58;5.47;;;;;;;11.26;98.13;101555.25;4957598;28;20676;-51
2022/06/13 02:23:11;;;;;;;18.80;5.05;;;;;;;11.19;98.05;101549.19;4991345;28;20208;-51
2022/06/13 02:25:45;;;;;;;18.63;4.93;;;;;;;11.26;97.91;101547.22;4990645;28;20205;-51
2022/06/13 02:28:21;;;;;;;12.68;5.40;;;;;;;11.23;98.17;101555.34;4991789;28;20633;-52
2022/06/13 02:30:51;;;;;;;12.35;4.43;;;;;;;11.08;97.71;101552.19;4991334;28;20181;-53
2022/06/13 02:33:30;;;;;;;16.65;4.90;;;;;;;11.12;98.36;101556.53;4991179;28;20554;-53
2022/06/13 02:36:03;;;;;;;15.85;5.28;;;;;;;11.29;98.28;101545.31;4991371;28;20573;-51
2022/06/13 02:38:43;;;;;;;17.25;4.65;;;;;;;11.32;97.91;101552.41;4991324;28;20657;-52
2022/06/13 02:41:13;;;;;;;16.75;4.72;;;;;;;11.26;97.64;101558.84;4991258;28;20196;-51
2022/06/13 02:43:49;;;;;;;17.40;4.50;;;;;;;11.29;97.82;101544.47;4990793;28;20215;-53
2022/06/13 02:46:23;;;;;;;17.27;4.60;;;;;;;11.44;97.54;101538.63;4991320;28;20181;-52
2022/06/13 02:48:55;;;;;;;14.05;5.13;;;;;;;11.54;97.30;101539.22;4990760;28;20185;-52
2022/06/13 02:51:29;;;;;;;16.88;5.03;;;;;;;11.55;96.94;101536.50;4991310;28;20173;-51
2022/06/13 02:54:07;;;;;;;16.52;4.95;;;;;;;11.55;96.82;101533.81;4990429;28;20179;-51
2022/06/13 02:57:23;;;;;;;14.48;4.97;;;;;;;11.61;96.59;101532.75;4991112;28;20228;-53
2022/06/13 02:59:51;;;;;;;18.52;4.88;;;;;;;11.58;96.82;101538.19;4990178;28;20231;-52
2022/06/13 03:02:25;;;;;;;14.65;4.22;;;;;;;11.69;96.95;101541.41;4991044;28;20185;-53
2022/06/13 03:05:00;;;;;;;15.10;4.70;;;;;;;11.77;96.58;101535.81;4987736;28;20210;-51
2022/06/13 03:07:34;;;;;;;15.23;4.80;;;;;;;11.69;96.35;101541.41;4985605;28;20624;-51
2022/06/13 03:10:12;;;;;;;17.63;4.93;;;;;;;11.70;96.26;101528.91;4990267;28;20180;-52
2022/06/13 03:12:58;;;;;;;11.13;4.25;;;;;;;11.60;96.80;101543.53;4988180;28;20212;-51
2022/06/13 03:15:45;;;;;;;16.27;4.60;;;;;;;11.58;97.29;101537.31;4985156;28;20200;-53
2022/06/13 03:18:20;;;;;;;13.73;4.68;;;;;;;11.65;96.53;101549.63;4991046;28;20170;-51
2022/06/13 03:20:55;;;;;;;14.65;4.30;;;;;;;11.51;96.51;101550.94;4990984;28;20255;-50
2022/06/13 03:23:28;;;;;;;15.23;4.70;;;;;;;11.28;97.21;101562.38;4990201;28;20180;-51
2022/06/13 03:25:57;;;;;;;13.85;4.05;;;;;;;10.86;98.19;101565.31;4991049;28;20328;-52
2022/06/13 03:28:50;;;;;;;18.45;4.95;;;;;;;10.80;99.68;101568.19;4990770;28;20174;-52
2022/06/13 03:31:26;;;;;;;15.60;4.53;;;;;;;10.80;100.00;101559.25;4990341;28;20181;-51
2022/06/13 03:33:55;;;;;;;15.13;4.20;;;;;;;10.83;100.00;101560.06;4990520;28;20235;-52
2022/06/13 03:36:24;;;;;;;14.13;4.38;;;;;;;10.67;100.00;101562.28;4990545;28;20247;-52
2022/06/13 03:38:57;;;;;;;9.88;3.47;;;;;;;10.80;100.00;101559.25;4973421;28;20751;-52
2022/06/13 03:41:26;;;;;;;8.10;2.75;;;;;;;10.79;100.00;101562.88;4990567;28;20667;-51
2022/06/13 03:43:59;;;;;;;9.90;3.45;;;;;;;10.78;100.00;101555.72;4990216;28;20170;-53
2022/06/13 03:46:32;;;;;;;7.78;2.72;;;;;;;10.90;100.00;101569.69;4990507;28;20173;-53
2022/06/13 03:49:08;;;;;;;8.38;2.90;;;;;;;10.81;100.00;101558.34;4990815;28;20686;-52
2022/06/13 03:51:39;;;;;;;10.25;3.03;;;;;;;10.82;100.00;101568.13;4990658;28;20613;-53
2022/06/13 03:54:18;;;;;;;8.57;2.63;;;;;;;10.80;100.00;101559.25;4989352;28;20784;-54
2022/06/13 03:57:20;;;;;;;8.20;3.00;;;;;;;10.80;100.00;101561.94;4990485;28;20664;-52
2022/06/13 03:59:59;;;;;;;8.23;2.80;;;;;;;10.76;100.00;101557.56;4990381;28;20188;-52
2022/06/13 04:02:28;;;;;;;6.80;2.97;;;;;;;10.77;100.00;101578.09;4990410;28;20165;-52
2022/06/13 04:04:54;;;;;;;9.13;3.05;;;;;;;10.83;100.00;101570.78;4989819;28;20224;-52
2022/06/13 04:07:22;;;;;;;11.10;3.13;;;;;;;10.68;100.00;101566.72;4990718;28;20668;-53
2022/06/13 04:09:55;;;;;;;8.35;2.70;;;;;;;10.61;100.00;101569.59;4972999;28;20536;-54
2022/06/13 04:12:50;;;;;;;8.85;3.10;;;;;;;10.64;100.00;101559.66;4990106;28;20166;-52
2022/06/13 04:15:30;;;;;;;8.07;3.22;;;;;;;10.88;100.00;101551.88;4989720;28;20232;-54
2022/06/13 04:17:59;;;;;;;10.50;2.72;;;;;;;10.87;100.00;101558.19;4990599;28;20185;-54
2022/06/13 04:20:30;;;;;;;4.68;2.47;;;;;;;10.86;100.00;101559.97;4990296;28;20224;-53
2022/06/13 04:23:08;;;;;;;10.50;3.13;;;;;;;11.01;100.00;101552.41;4989584;28;20252;-51
2022/06/13 04:25:43;;;;;;;7.18;3.10;;;;;;;11.08;100.00;101541.47;4990422;28;20217;-53
2022/06/13 04:28:20;;;;;;;10.98;2.88;;;;;;;11.08;100.00;101538.78;4990287;28;20611;-52
2022/06/13 04:30:48;;;;;;;7.85;2.88;;;;;;;11.19;100.00;101541.16;4973153;28;20185;-53
2022/06/13 04:33:36;;;;;;;7.25;2.63;;;;;;;11.25;100.00;101540.09;4989499;28;20177;-53
2022/06/13 04:36:03;;;;;;;7.40;2.88;;;;;;;11.08;100.00;101538.78;4990319;28;20690;-53
2022/06/13 04:38:30;;;;;;;7.30;2.72;;;;;;;11.26;100.00;101541.84;4990405;28;20230;-52
2022/06/13 04:41:00;;;;;;;7.03;2.90;;;;;;;11.33;100.00;101530.03;4990156;28;20180;-53
2022/06/13 04:43:33;;;;;;;8.70;2.55;;;;;;;11.31;100.00;101531.88;4992833;28;20584;-54
2022/06/13 04:46:04;;;;;;;6.32;2.60;;;;;;;11.39;100.00;101535.22;4993511;28;20759;-54
2022/06/13 04:48:31;;;;;;;5.20;2.83;;;;;;;11.41;99.98;101535.16;4993859;28;20208;-52
2022/06/13 04:51:05;;;;;;;7.20;2.83;;;;;;;11.50;99.48;101521.44;4993548;28;20199;-51
2022/06/13 04:53:38;;;;;;;5.85;2.80;;;;;;;11.53;98.88;101532.09;4993175;28;20646;-52
2022/06/13 04:56:04;;;;;;;5.43;2.58;;;;;;;11.61;98.59;101540.81;4992930;28;20216;-52
2022/06/13 04:58:39;;;;;;;6.78;2.55;;;;;;;11.69;97.99;101540.53;4993525;28;20169;-51
2022/06/13 05:01:12;;;;;;;6.82;2.90;;;;;;;11.58;97.34;101534.63;4993536;28;20268;-53
2022/06/13 05:03:42;;;;;;;7.65;2.55;;;;;;;11.63;96.80;101536.25;4992743;28;20539;-52
2022/06/13 05:06:39;;;;;;;7.60;2.30;;;;;;;11.81;96.37;101553.59;4993417;28;20572;-52
2022/06/13 05:09:14;;;;;;;7.97;2.70;;;;;;;11.67;96.34;101547.75;4987068;28;20216;-53
2022/06/13 05:12:04;;;;;;;5.00;2.33;;;;;;;11.78;96.36;101553.66;4993490;28;20295;-52
2022/06/13 05:15:07;;;;;;;9.68;2.90;;;;;;;11.85;95.78;101552.56;4992059;28;20206;-53
2022/06/13 05:18:07;;;;;;;8.20;2.58;;;;;;;11.83;95.81;101554.41;4987283;28;20221;-53
2022/06/13 05:20:35;;;;;;;9.35;3.33;;;;;;;11.66;95.34;101556.75;4992879;28;20232;-52
2022/06/13 05:23:07;;;;;;;6.85;2.45;;;;;;;11.82;96.06;101558.03;4975301;28;20198;-52
2022/06/13 05:25:37;;;;;;;10.65;3.35;;;;;;;11.63;96.31;101562.19;4992388;28;20240;-53
2022/06/13 05:28:03;;;;;;;9.85;2.67;;;;;;;11.68;96.26;101547.72;4993235;28;20192;-52
2022/06/13 05:30:29;;;;;;;8.13;2.88;;;;;;;11.72;96.55;101545.84;4992994;28;20260;-53
2022/06/13 05:32:56;;;;;;;7.70;2.88;;;;;;;11.86;96.24;101553.44;4992314;28;20281;-51
2022/06/13 05:35:31;;;;;;;6.95;2.90;;;;;;;12.11;96.36;101550.84;4992738;28;20220;-51
2022/06/13 05:38:00;;;;;;;5.30;2.90;;;;;;;12.30;96.67;101552.00;4992206;28;20197;-53
2022/06/13 05:40:26;;;;;;;10.18;3.35;;;;;;;12.12;95.08;101545.44;4992790;28;20550;-52
2022/06/13 05:42:52;;;;;;;12.93;2.90;;;;;;;12.34;95.04;101550.97;4991360;28;20185;-54
2022/06/13 05:45:22;;;;;;;6.05;2.80;;;;;;;12.55;94.57;101543.09;4990022;28;20644;-52
2022/06/13 05:47:49;;;;;;;7.95;3.00;;;;;;;12.55;94.65;101541.28;4990063;28;20671;-54
2022/06/13 05:50:17;;;;;;;9.90;3.63;;;;;;;12.89;94.50;101539.19;4992082;28;20192;-53
2022/06/13 05:52:43;;;;;;;10.80;3.58;;;;;;;13.07;93.32;101535.81;4992266;28;20213;-52
2022/06/13 05:55:09;;;;;;;7.18;3.60;;;;;;;13.30;92.90;101534.13;4990925;28;20243;-53
2022/06/13 05:57:36;;;;;;;11.40;4.10;;;;;;;13.33;92.41;101539.38;4992216;28;20208;-54
2022/06/13 06:00:02;;;;;;;10.40;3.72;;;;;;;13.52;92.00;101540.44;4988381;28;20194;-54
2022/06/13 06:02:37;;;;;;;8.68;3.67;;;;;;;13.42;91.50;101546.22;4989289;28;20277;-53
2022/06/13 06:05:03;;;;;;;14.50;4.25;;;;;;;13.46;91.94;101546.03;4991562;28;20688;-51
2022/06/13 06:07:30;;;;;;;12.18;4.20;;;;;;;13.75;91.33;101539.53;4992171;28;20366;-52
2022/06/13 06:09:56;;;;;;;10.13;3.30;;;;;;;13.91;89.73;101549.69;4992147;28;20170;-53
2022/06/13 06:12:21;;;;;;;9.30;3.70;;;;;;;13.79;89.01;101556.41;4989946;28;20185;-51
2022/06/13 06:14:47;;;;;;;12.35;4.40;;;;;;;13.93;89.79;101548.69;4991261;28;20232;-51
2022/06/13 06:17:12;;;;;;;13.13;4.40;;;;;;;14.28;88.58;101549.03;4991236;28;20691;-50
2022/06/13 06:19:38;;;;;;;14.93;5.03;;;;;;;14.16;87.22;101552.22;4990836;28;20244;-49
2022/06/13 06:22:03;;;;;;;11.30;3.78;;;;;;;13.86;88.16;101548.97;4991854;28;20201;-50
2022/06/13 06:24:29;;;;;;;14.27;4.07;;;;;;;13.90;88.78;101548.78;4991229;28;20399;-51
2022/06/13 06:26:55;;;;;;;14.05;4.03;;;;;;;14.07;88.67;101560.69;4992114;28;20582;-48
2022/06/13 06:29:20;;;;;;;14.23;4.00;;;;;;;13.87;88.60;101548.91;4991837;28;20205;-48
2022/06/13 06:31:46;;;;;;;15.63;4.10;;;;;;;13.86;89.54;101546.28;4991614;28;20633;-52
2022/06/13 06:34:11;;;;;;;11.93;3.72;;;;;;;14.25;88.82;101549.16;4991687;28;20227;-49
2022/06/13 06:36:37;;;;;;;17.80;4.07;;;;;;;14.41;87.18;101550.25;4991715;28;20236;-45
2022/06/13 06:39:02;;;;;;;15.68;4.38;;;;;;;14.52;87.26;101544.41;4991665;28;20192;-48
2022/06/13 06:41:28;;;;;;;13.25;3.78;;;;;;;14.69;86.60;101548.22;4990771;28;20256;-46
2022/06/13 06:43:53;;;;;;;13.43;3.88;;;;;;;15.39;85.22;101538.72;4991386;28;20215;-47
2022/06/13 06:46:19;;;;;;;16.83;4.70;;;;;;;15.38;82.42;101540.56;4991184;28;20587;-47
2022/06/13 06:48:44;;;;;;;10.02;3.83;;;;;;;15.28;82.50;101536.53;4991483;28;20165;-45
2022/06/13 06:51:13;;;;;;;14.40;4.13;;;;;;;14.73;82.85;101544.44;4991704;28;20200;-46
2022/06/13 07:01:52;;;;;;;17.23;3.45;;;;;;;15.39;81.02;101519.81;4991561;28;20161;-46
2022/06/13 07:04:17;;;;;;;10.57;3.20;;;;;;;15.31;80.71;101528.31;4991263;28;20205;-48
2022/06/13 07:06:43;;;;;;;11.90;3.50;;;;;;;15.01;81.16;101534.16;4990320;28;20172;-46
2022/06/13 07:09:08;;;;;;;9.70;3.00;;;;;;;14.96;81.32;101529.94;4991690;28;20179;-48
2022/06/13 07:11:54;;;;;;;13.93;3.65;;;;;;;16.00;79.97;101535.78;4991117;28;20232;-49
2022/06/13 07:14:20;;;;;;;12.98;3.67;;;;;;;16.06;78.69;101526.50;4991049;28;20288;-48
2022/06/13 07:16:46;;;;;;;11.77;3.45;;;;;;;16.52;78.11;101528.72;4991173;28;20228;-50
2022/06/13 07:19:12;;;;;;;11.80;3.22;;;;;;;16.32;76.87;101524.31;4990858;28;20220;-47
2022/06/13 07:21:37;;;;;;;11.35;3.15;;;;;;;15.96;76.93;101528.81;4991122;28;20170;-48
2022/06/13 07:24:03;;;;;;;10.98;3.03;;;;;;;15.59;79.01;101525.16;4990570;28;20173;-49
2022/06/13 07:26:31;;;;;;;10.48;2.90;;;;;;;15.67;78.94;101538.28;4981469;28;20252;-48
2022/06/13 07:28:56;;;;;;;10.40;2.95;;;;;;;15.29;79.36;101526.63;4990659;28;20177;-51
2022/06/13 07:31:45;;;;;;;8.82;2.85;;;;;;;15.37;79.70;101537.91;4990417;28;20553;-47
2022/06/13 07:34:20;;;;;;;12.70;3.08;;;;;;;14.77;80.85;101540.66;4989911;28;20589;-51
2022/06/13 07:36:48;;;;;;;8.77;2.90;;;;;;;14.27;82.55;101539.19;4990222;28;20226;-48
2022/06/13 07:39:13;;;;;;;11.05;2.30;;;;;;;14.22;83.69;101547.47;4990722;28;20202;-49
2022/06/13 07:41:40;;;;;;;9.93;2.25;;;;;;;14.22;83.03;101552.84;4989540;28;20333;-46
2022/06/13 07:44:07;;;;;;;7.45;2.40;;;;;;;14.21;83.22;101556.50;4990341;28;20236;-47
2022/06/13 07:46:34;;;;;;;6.85;2.35;;;;;;;14.29;84.28;101555.28;4990752;28;20174;-53
2022/06/13 07:49:00;;;;;;;12.43;2.58;;;;;;;13.70;83.69;101564.88;4990752;28;20170;-50
2022/06/13 07:51:27;;;;;;;5.72;1.73;;;;;;;13.68;83.72;101559.53;4991005;28;20169;-51
2022/06/13 07:53:53;;;;;;;3.83;1.30;;;;;;;12.94;82.84;101572.19;4990148;28;20248;-50
2022/06/13 07:56:22;;;;;;;2.63;0.90;;;;;;;12.91;82.96;101572.31;4990660;28;20211;-48
2022/06/13 07:58:50;;;;;;;4.55;1.15;;;;;;;13.14;83.08;101566.06;4989166;28;20189;-51
2022/06/13 08:01:17;;;;;;;2.97;1.15;;;;;;;13.51;82.83;101572.78;4990741;28;20191;-50
2022/06/13 08:03:42;;;;;;;4.53;1.15;;;;;;;13.71;81.27;101562.13;4990395;28;20268;-50
2022/06/13 08:06:10;;;;;;;4.85;1.25;;;;;;;13.72;79.51;101561.19;4983444;28;20292;-52
2022/06/13 08:08:36;;;;;;;2.42;1.17;;;;;;;13.82;80.36;101556.31;4990813;28;20248;-49
2022/06/13 08:11:04;;;;;;;4.13;1.10;;;;;;;14.30;80.81;101554.34;4973242;28;20518;-49
2022/06/13 08:13:30;;;;;;;2.80;0.93;;;;;;;14.35;78.56;101569.41;4990539;28;20161;-52
2022/06/13 08:15:57;;;;;;;3.03;1.40;;;;;;;13.81;79.01;101565.31;4990451;28;20227;-48
2022/06/13 08:18:23;;;;;;;1.67;0.88;;;;;;;14.28;79.19;101573.28;4993530;28;20173;-51
2022/06/13 08:20:49;;;;;;;2.53;0.80;;;;;;;14.66;77.19;101564.53;4994194;28;20185;-54
2022/06/13 08:23:16;;;;;;;1.50;0.77;;;;;;;14.27;76.58;101560.75;4994293;28;20186;-50
2022/06/13 08:25:42;;;;;;;3.85;0.75;;;;;;;13.97;76.80;101571.88;4994051;28;20200;-50
2022/06/13 08:28:10;;;;;;;1.85;0.70;;;;;;;13.47;77.41;101577.44;4994317;28;20593;-49
2022/06/13 08:30:37;;;;;;;4.18;1.00;;;;;;;13.71;79.22;101577.38;4994128;28;20177;-50
2022/06/13 08:33:03;;;;;;;2.85;0.70;;;;;;;13.96;81.26;101588.94;4993784;28;20599;-53
2022/06/13 08:35:29;;;;;;;5.38;1.05;;;;;;;14.04;80.83;101606.63;4994166;28;20209;-53
2022/06/13 08:37:54;;;;;;;4.10;0.90;;;;;;;13.97;83.08;101623.06;4991346;28;20240;-50
2022/06/13 08:40:20;;;;;;;10.70;2.15;;;;;;;12.89;86.29;101650.34;4994198;28;20164;-46
2022/06/13 08:42:57;;;;;;;10.02;1.80;;;;;;;12.87;89.06;101640.59;4993886;28;20294;-50
2022/06/13 08:45:37;;;;;;;6.18;1.45;;;;;;;12.22;90.52;101648.09;4994023;28;20196;-52
2022/06/13 08:48:23;;;;;;;7.32;2.03;;;;;;;12.31;91.87;101647.81;4994070;28;20597;-49
2022/06/13 08:50:58;;;;;;;6.22;1.40;;;;;;;12.18;92.65;101659.88;4993822;28;20169;-48
2022/06/13 08:53:30;;;;;;;11.68;1.30;;;;;;;11.88;93.48;101661.72;4994178;28;20213;-49
2022/06/13 08:56:01;;;;;;;2.13;1.00;;;;;;;11.63;94.87;101665.09;4993535;28;20193;-48
2022/06/13 08:58:34;;;;;;;4.07;1.20;;;;;;;11.46;96.18;101672.75;4994381;28;20562;-49
2022/06/13 09:01:09;;;;;;;5.90;1.30;;;;;;;11.51;97.60;101671.69;4994132;28;20208;-47
2022/06/13 09:03:51;;;;;;;5.68;1.30;;;;;;;11.24;99.29;101676.03;4993503;28;20249;-47
2022/06/13 09:06:34;;;;;;;6.07;1.98;;;;;;;11.50;100.00;101675.31;4993747;28;20150;-53
2022/06/13 09:09:09;;;;;;;6.05;1.40;;;;;;;11.14;100.00;101671.84;4993668;28;20639;-46
2022/06/13 09:11:42;;;;;;;3.20;1.23;;;;;;;11.45;100.00;101666.50;4992792;28;20651;-49
2022/06/13 09:14:20;;;;;;;2.75;1.05;;;;;;;11.29;100.00;101657.13;4992876;28;20204;-48
2022/06/13 09:16:57;;;;;;;5.30;1.30;;;;;;;11.67;100.00;101657.81;4993373;28;20197;-48
2022/06/13 09:19:28;;;;;;;5.68;1.58;;;;;;;12.14;100.00;101661.78;4992031;28;20177;-48
2022/06/13 09:22:12;;;;;;;2.13;1.25;;;;;;;12.35;100.00;101652.16;4992411;28;20197;-47
2022/06/13 09:24:55;;;;;;;3.90;1.40;;;;;;;12.61;99.69;101641.47;4992962;28;20238;-47
2022/06/13 09:27:37;;;;;;;3.75;1.05;;;;;;;13.24;99.40;101650.91;4992461;28;20193;-48
2022/06/13 09:30:17;;;;;;;5.22;1.08;;;;;;;13.09;97.19;101652.34;4992243;28;20248;-46
2022/06/13 09:32:53;;;;;;;5.40;1.13;;;;;;;13.04;97.20;101648.94;4991782;28;20173;-47
2022/06/13 09:35:24;;;;;;;3.20;1.08;;;;;;;12.87;96.11;101648.66;4992711;28;20216;-45
2022/06/13 09:38:18;;;;;;;3.15;0.90;;;;;;;12.82;96.45;101645.25;4992322;28;20317;-50
2022/06/13 09:40:58;;;;;;;5.47;1.00;;;;;;;12.61;96.42;101653.09;4983747;28;20209;-46
2022/06/13 09:43:38;;;;;;;4.05;1.20;;;;;;;12.44;96.69;101661.75;4992636;28;20165;-46
2022/06/13 09:46:04;;;;;;;2.70;1.10;;;;;;;12.55;97.55;101650.59;4992640;28;20217;-45
2022/06/13 09:48:52;;;;;;;4.28;1.27;;;;;;;12.40;98.17;101657.38;4992921;28;20497;-46
2022/06/13 09:51:35;;;;;;;2.53;1.20;;;;;;;12.28;99.15;101666.72;4992154;28;20169;-46
2022/06/13 09:54:21;;;;;;;2.30;0.80;;;;;;;12.44;99.97;101660.84;4992487;28;20623;-46
2022/06/13 09:57:10;;;;;;;6.03;1.95;;;;;;;12.52;99.81;101661.47;4992215;28;20209;-45
2022/06/13 10:00:03;;;;;;;3.10;1.52;;;;;;;12.80;100.00;101666.81;4972997;28;20617;-45
2022/06/13 10:02:51;;;;;;;7.32;1.48;;;;;;;12.73;100.00;101671.53;4972599;28;20259;-49
2022/06/13 10:05:34;;;;;;;4.57;1.23;;;;;;;12.70;100.00;101682.38;4972261;28;20229;-48
2022/06/13 10:08:17;;;;;;;2.58;1.40;;;;;;;12.73;100.00;101684.09;4971536;28;20200;-44
2022/06/13 10:10:50;;;;;;;2.30;0.80;;;;;;;12.37;100.00;101681.66;4972926;28;20193;-47
2022/06/13 10:13:39;;;;;;;5.28;1.00;;;;;;;12.63;100.00;101675.44;4972111;28;20232;-45
2022/06/13 10:16:31;;;;;;;5.93;1.75;;;;;;;12.66;100.00;101675.34;4972825;28;20214;-47
2022/06/13 10:19:12;;;;;;;3.83;1.42;;;;;;;12.66;100.00;101666.38;4972545;28;20257;-44
2022/06/13 10:21:48;;;;;;;2.15;1.00;;;;;;;12.73;100.00;101670.66;4972614;28;20166;-46
2022/06/13 10:24:38;;;;;;;2.00;1.02;;;;;;;12.64;100.00;101655.69;4972259;28;20193;-45
2022/06/13 10:27:16;;;;;;;2.75;0.95;;;;;;;12.88;100.00;101662.06;4972368;28;20166;-44
2022/06/13 10:29:53;;;;;;;1.83;0.80;;;;;;;12.89;100.00;101663.78;4972170;28;20185;-42
2022/06/13 10:32:40;;;;;;;3.22;1.00;;;;;;;13.69;100.00;101658.25;4972185;28;20170;-43
2022/06/13 10:35:29;;;;;;;2.97;0.80;;;;;;;14.37;96.82;101656.47;4971912;28;20193;-48
2022/06/13 10:38:14;;;;;;;1.17;0.88;;;;;;;14.58;95.05;101648.47;4972183;28;20263;-44
2022/06/13 10:40:40;;;;;;;1.85;0.68;;;;;;;14.49;91.12;101647.00;4972378;28;20549;-45
2022/06/13 10:43:06;;;;;;;3.75;1.10;;;;;;;14.17;89.44;101651.03;4972003;28;20661;-47
2022/06/13 10:45:34;;;;;;;3.83;0.98;;;;;;;13.95;90.39;101648.28;4972201;28;20186;-43
2022/06/13 10:48:12;;;;;;;3.72;1.00;;;;;;;14.11;91.01;101659.34;4979265;28;20182;-49
2022/06/13 10:50:57;;;;;;;1.75;0.95;;;;;;;14.78;89.74;101650.31;4991443;28;20164;-45
2022/06/13 10:53:35;;;;;;;2.42;1.13;;;;;;;14.72;91.60;101661.38;4991567;28;20177;-45
2022/06/13 10:56:04;;;;;;;2.72;1.10;;;;;;;14.35;89.57;101665.56;4991541;28;20197;-47
2022/06/13 10:58:38;;;;;;;1.05;0.82;;;;;;;13.97;89.34;101657.19;4991743;28;20200;-44
2022/06/13 11:01:23;;;;;;;2.00;1.13;;;;;;;13.81;90.51;101651.50;4991591;28;20249;-44
2022/06/13 11:04:03;;;;;;;2.35;1.35;;;;;;;13.72;89.94;101660.81;4991361;28;20189;-44
2022/06/13 11:06:42;;;;;;;3.22;1.55;;;;;;;13.64;91.50;101648.59;4991554;28;20165;-45
2022/06/13 11:09:24;;;;;;;4.30;1.65;;;;;;;13.42;93.91;101667.34;4991561;28;20181;-47
2022/06/13 11:12:00;;;;;;;2.22;1.63;;;;;;;13.58;95.22;101664.06;4991049;28;20644;-45
2022/06/13 11:14:33;;;;;;;3.75;1.70;;;;;;;13.88;96.52;101657.53;4990966;28;20233;-44
2022/06/13 11:22:43;;;;;;;2.88;1.58;;;;;;;14.90;95.01;101652.50;4989989;28;20181;-43
2022/06/13 11:25:19;;;;;;;4.28;1.48;;;;;;;15.02;92.33;101648.38;4990812;28;20189;-44
2022/06/13 11:27:59;;;;;;;1.65;0.98;;;;;;;15.84;90.90;101622.16;4991044;28;20285;-43
2022/06/13 11:30:30;;;;;;;4.45;1.25;;;;;;;16.60;91.53;101629.28;4990885;28;20188;-44
2022/06/13 11:33:02;;;;;;;3.78;1.48;;;;;;;16.35;88.80;101630.50;4990922;28;20182;-47
2022/06/13 11:35:40;;;;;;;3.08;1.35;;;;;;;16.62;87.73;101620.13;4990870;28;20708;-44
2022/06/13 11:38:28;;;;;;;4.97;1.27;;;;;;;17.06;88.14;101621.53;4990856;28;20221;-45
2022/06/13 11:41:18;;;;;;;4.68;1.45;;;;;;;16.25;86.29;101638.22;4991116;28;20181;-44
2022/06/13 11:43:55;;;;;;;4.20;1.20;;;;;;;15.23;88.17;101651.97;4990766;28;20178;-43
2022/06/13 11:46:23;;;;;;;7.57;1.90;;;;;;;14.33;90.83;101656.66;4990822;28;20165;-41
2022/06/13 11:48:50;;;;;;;13.82;2.92;;;;;;;13.91;91.30;101661.00;4991068;28;20186;-49
2022/06/13 11:51:26;;;;;;;9.00;1.70;;;;;;;13.88;87.82;101647.63;4990702;28;20161;-42
2022/06/13 11:53:53;;;;;;;12.98;1.98;;;;;;;13.90;84.39;101652.97;4990416;28;20184;-46
2022/06/13 11:56:26;;;;;;;13.40;1.80;;;;;;;13.81;83.44;101654.22;4991039;28;20205;-47
2022/06/13 11:58:54;;;;;;;9.43;1.70;;;;;;;13.54;85.85;101659.72;4990642;28;20174;-47
2022/06/13 12:01:31;;;;;;;22.52;3.15;;;;;;;12.86;86.84;101649.59;4990884;28;20196;-46
2022/06/13 12:03:57;;;;;;;29.15;2.95;;;;;;;12.54;88.58;101638.97;4990591;28;20398;-45
2022/06/13 12:06:23;;;;;;;42.15;5.32;;;;;;;12.68;91.20;101651.06;4990930;28;20256;-45